createdAt,value
2023-01-03T00:00:34.308Z,1017.08
2023-01-03T00:01:34.394Z,1017.06
2023-01-03T00:02:35.096Z,1017.03
2023-01-03T00:03:35.553Z,1017.05
2023-01-03T00:04:35.622Z,1017.10
2023-01-03T00:05:36.067Z,1017.01
2023-01-03T00:06:36.046Z,1017.13
2023-01-03T00:07:35.414Z,1017.03
2023-01-03T00:08:35.563Z,1017.14
2023-01-03T00:09:35.708Z,1017.08
2023-01-03T00:10:35.846Z,1017.12
2023-01-03T00:11:37.019Z,1017.12
2023-01-03T00:12:37.066Z,1017.11
2023-01-03T00:13:36.301Z,1017.05
2023-01-03T00:14:36.992Z,1017.08
2023-01-03T00:15:37.524Z,1017.07
2023-01-03T00:16:36.830Z,1017.07
2023-01-03T00:17:36.933Z,1017.05
2023-01-03T00:18:37.105Z,1017.11
2023-01-03T00:19:37.284Z,1017.06
2023-01-03T00:20:38.523Z,1017.01
2023-01-03T00:21:37.675Z,1017.03
2023-01-03T00:22:38.065Z,1017.10
2023-01-03T00:23:39.522Z,1017.03
2023-01-03T00:24:38.154Z,1017.07
2023-01-03T00:25:38.325Z,1017.05
2023-01-03T00:26:39.021Z,1017.05
2023-01-03T00:27:39.519Z,1017.05
2023-01-03T00:28:38.888Z,1017.03
2023-01-03T00:29:39.040Z,1017.06
2023-01-03T00:30:39.208Z,1017.01
2023-01-03T00:31:40.031Z,1017.03
2023-01-03T00:32:41.112Z,1017.09
2023-01-03T00:33:40.545Z,1017.01
2023-01-03T00:34:39.955Z,1017.08
2023-01-03T00:35:40.118Z,1017.11
2023-01-03T00:36:40.286Z,1017.12
2023-01-03T00:37:40.457Z,1017.20
2023-01-03T00:38:40.639Z,1017.13
2023-01-03T00:39:40.832Z,1017.15
2023-01-03T00:40:41.007Z,1017.14
2023-01-03T00:41:41.163Z,1017.08
2023-01-03T00:42:41.312Z,1017.18
2023-01-03T00:43:42.065Z,1017.16
2023-01-03T00:44:42.965Z,1017.18
2023-01-03T00:45:43.585Z,1017.22
2023-01-03T00:46:43.065Z,1017.18
2023-01-03T00:47:43.073Z,1017.22
2023-01-03T00:48:42.587Z,1017.26
2023-01-03T00:49:43.566Z,1017.30
2023-01-03T00:50:43.535Z,1017.35
2023-01-03T00:51:43.061Z,1017.39
2023-01-03T00:52:44.073Z,1017.37
2023-01-03T00:53:44.067Z,1017.46
2023-01-03T00:54:43.604Z,1017.50
2023-01-03T00:55:43.807Z,1017.58
2023-01-03T00:56:43.969Z,1017.56
2023-01-03T00:57:45.077Z,1017.58
2023-01-03T00:58:44.332Z,1017.60
2023-01-03T00:59:44.506Z,1017.60
2023-01-03T01:00:45.574Z,1017.65
2023-01-03T01:01:47.418Z,1017.70
2023-01-03T01:02:47.255Z,1017.76
2023-01-03T01:03:45.236Z,1017.71
2023-01-03T01:04:45.413Z,1017.71
2023-01-03T01:05:45.556Z,1017.69
2023-01-03T01:06:46.573Z,1017.72
2023-01-03T01:07:46.531Z,1017.69
2023-01-03T01:08:46.164Z,1017.74
2023-01-03T01:09:47.033Z,1017.72
2023-01-03T01:10:47.081Z,1017.81
2023-01-03T01:11:46.694Z,1017.82
2023-01-03T01:12:46.876Z,1017.89
2023-01-03T01:13:47.050Z,1017.87
2023-01-03T01:14:47.236Z,1017.88
2023-01-03T01:15:48.073Z,1017.91
2023-01-03T01:16:47.615Z,1017.89
2023-01-03T01:17:47.791Z,1017.85
2023-01-03T01:18:47.935Z,1017.90
2023-01-03T01:19:49.077Z,1017.86
2023-01-03T01:20:49.073Z,1017.91
2023-01-03T01:21:48.497Z,1017.87
2023-01-03T01:22:48.647Z,1017.88
2023-01-03T01:23:48.800Z,1017.86
2023-01-03T01:24:48.975Z,1017.88
2023-01-03T01:25:49.132Z,1017.90
2023-01-03T01:26:49.618Z,1017.91
2023-01-03T01:27:50.902Z,1017.94
2023-01-03T01:28:49.652Z,1017.93
2023-01-03T01:29:49.834Z,1017.97
2023-01-03T01:30:50.035Z,1018.01
2023-01-03T01:31:50.212Z,1018.02
2023-01-03T01:32:53.035Z,1017.98
2023-01-03T01:33:51.075Z,1018.05
2023-01-03T01:34:50.765Z,1018.02
2023-01-03T01:35:51.551Z,1018.05
2023-01-03T01:36:51.078Z,1018.06
2023-01-03T01:37:51.222Z,1018.12
2023-01-03T01:38:51.594Z,1018.09
2023-01-03T01:39:51.491Z,1018.20
2023-01-03T01:40:51.636Z,1018.16
2023-01-03T01:41:52.539Z,1018.20
2023-01-03T01:42:51.957Z,1018.14
2023-01-03T01:43:52.151Z,1018.21
2023-01-03T01:44:52.422Z,1018.21
2023-01-03T01:45:52.523Z,1018.23
2023-01-03T01:46:54.586Z,1018.24
2023-01-03T01:47:52.840Z,1018.22
2023-01-03T01:48:53.539Z,1018.27
2023-01-03T01:49:53.184Z,1018.29
2023-01-03T01:50:54.082Z,1018.26
2023-01-03T01:51:54.585Z,1018.28
2023-01-03T01:52:53.861Z,1018.33
2023-01-03T01:53:54.021Z,1018.34
2023-01-03T01:54:54.204Z,1018.38
2023-01-03T01:55:54.358Z,1018.35
2023-01-03T01:56:55.081Z,1018.39
2023-01-03T01:57:55.103Z,1018.37
2023-01-03T01:58:56.550Z,1018.39
2023-01-03T01:59:55.034Z,1018.35
2023-01-03T02:00:55.207Z,1018.39
2023-01-03T02:01:55.425Z,1018.45
2023-01-03T02:02:55.650Z,1018.52
2023-01-03T02:03:55.661Z,1018.49
2023-01-03T02:04:56.603Z,1018.52
2023-01-03T02:05:56.001Z,1018.52
2023-01-03T02:06:57.559Z,1018.53
2023-01-03T02:07:56.314Z,1018.54
2023-01-03T02:08:58.060Z,1018.56
2023-01-03T02:09:56.682Z,1018.54
2023-01-03T02:10:57.583Z,1018.54
2023-01-03T02:11:56.981Z,1018.58
2023-01-03T02:12:57.173Z,1018.62
2023-01-03T02:13:57.354Z,1018.60
2023-01-03T02:14:58.085Z,1018.61
2023-01-03T02:15:57.805Z,1018.64
2023-01-03T02:16:58.617Z,1018.64
2023-01-03T02:17:58.011Z,1018.62
2023-01-03T02:18:58.647Z,1018.59
2023-01-03T02:19:58.303Z,1018.66
2023-01-03T02:20:59.190Z,1018.60
2023-01-03T02:21:58.728Z,1018.63
2023-01-03T02:22:58.916Z,1018.63
2023-01-03T02:23:59.088Z,1018.57
2023-01-03T02:25:00.101Z,1018.61
2023-01-03T02:25:59.475Z,1018.54
2023-01-03T02:26:59.675Z,1018.54
2023-01-03T02:28:00.554Z,1018.62
2023-01-03T02:29:01.551Z,1018.63
2023-01-03T02:30:00.332Z,1018.60
2023-01-03T02:31:00.565Z,1018.67
2023-01-03T02:32:00.777Z,1018.65
2023-01-03T02:33:00.997Z,1018.66
2023-01-03T02:34:01.181Z,1018.63
2023-01-03T02:35:02.098Z,1018.69
2023-01-03T02:36:03.147Z,1018.64
2023-01-03T02:37:02.111Z,1018.67
2023-01-03T02:38:01.794Z,1018.70
2023-01-03T02:39:03.053Z,1018.71
2023-01-03T02:40:03.106Z,1018.74
2023-01-03T02:41:02.418Z,1018.72
2023-01-03T02:42:02.607Z,1018.71
2023-01-03T02:43:04.059Z,1018.70
2023-01-03T02:44:03.006Z,1018.75
2023-01-03T02:45:04.102Z,1018.77
2023-01-03T02:46:03.463Z,1018.78
2023-01-03T02:47:03.659Z,1018.85
2023-01-03T02:48:05.553Z,1018.82
2023-01-03T02:49:05.058Z,1018.84
2023-01-03T02:50:04.109Z,1018.87
2023-01-03T02:51:05.057Z,1018.81
2023-01-03T02:52:04.437Z,1018.85
2023-01-03T02:53:04.592Z,1018.78
2023-01-03T02:54:05.568Z,1018.84
2023-01-03T02:55:05.116Z,1018.88
2023-01-03T02:56:06.050Z,1018.88
2023-01-03T02:57:05.291Z,1018.83
2023-01-03T02:58:05.446Z,1018.89
2023-01-03T02:59:05.646Z,1018.89
2023-01-03T03:00:05.825Z,1018.90
2023-01-03T03:01:06.038Z,1018.83
2023-01-03T03:02:07.213Z,1018.92
2023-01-03T03:03:07.098Z,1018.83
2023-01-03T03:04:06.570Z,1018.91
2023-01-03T03:05:06.745Z,1018.88
2023-01-03T03:06:07.556Z,1018.87
2023-01-03T03:07:07.104Z,1018.89
2023-01-03T03:08:07.276Z,1018.93
2023-01-03T03:09:07.418Z,1018.86
2023-01-03T03:10:07.557Z,1018.84
2023-01-03T03:11:07.735Z,1018.87
2023-01-03T03:12:08.560Z,1018.89
2023-01-03T03:13:08.032Z,1018.92
2023-01-03T03:14:09.102Z,1018.85
2023-01-03T03:15:08.355Z,1018.86
2023-01-03T03:16:08.577Z,1018.78
2023-01-03T03:17:08.803Z,1018.93
2023-01-03T03:18:08.946Z,1018.84
2023-01-03T03:19:10.060Z,1018.87
2023-01-03T03:20:09.946Z,1018.87
2023-01-03T03:21:09.477Z,1018.87
2023-01-03T03:22:09.648Z,1018.84
2023-01-03T03:23:10.557Z,1018.88
2023-01-03T03:24:10.931Z,1018.86
2023-01-03T03:25:10.929Z,1018.91
2023-01-03T03:26:10.343Z,1018.95
2023-01-03T03:27:10.511Z,1018.93
2023-01-03T03:28:11.561Z,1018.93
2023-01-03T03:29:10.792Z,1018.97
2023-01-03T03:30:10.948Z,1018.96
2023-01-03T03:31:11.150Z,1019.02
2023-01-03T03:32:11.314Z,1018.93
2023-01-03T03:33:12.105Z,1019.00
2023-01-03T03:34:11.641Z,1019.04
2023-01-03T03:35:11.786Z,1019.03
2023-01-03T03:36:11.927Z,1018.99
2023-01-03T03:37:12.608Z,1018.99
2023-01-03T03:38:12.226Z,1019.06
2023-01-03T03:39:12.410Z,1019.01
2023-01-03T03:40:12.588Z,1019.02
2023-01-03T03:41:12.767Z,1018.95
2023-01-03T03:42:12.943Z,1019.00
2023-01-03T03:43:15.079Z,1018.99
2023-01-03T03:44:13.338Z,1019.00
2023-01-03T03:45:13.555Z,1018.98
2023-01-03T03:46:13.807Z,1019.00
2023-01-03T03:47:13.975Z,1018.97
2023-01-03T03:48:14.055Z,1019.09
2023-01-03T03:49:14.328Z,1019.00
2023-01-03T03:50:15.407Z,1019.03
2023-01-03T03:51:15.433Z,1019.03
2023-01-03T03:52:15.611Z,1019.04
2023-01-03T03:53:14.893Z,1019.05
2023-01-03T03:54:15.071Z,1019.03
2023-01-03T03:55:15.230Z,1019.10
2023-01-03T03:56:16.075Z,1019.20
2023-01-03T03:57:15.588Z,1019.14
2023-01-03T03:58:15.736Z,1019.18
2023-01-03T03:59:16.568Z,1019.17
2023-01-03T04:00:16.120Z,1019.26
2023-01-03T04:01:17.159Z,1019.20
2023-01-03T04:02:16.626Z,1019.26
2023-01-03T04:03:17.844Z,1019.24
2023-01-03T04:04:18.611Z,1019.28
2023-01-03T04:05:17.118Z,1019.24
2023-01-03T04:06:18.575Z,1019.25
2023-01-03T04:07:17.636Z,1019.25
2023-01-03T04:08:19.575Z,1019.29
2023-01-03T04:09:17.870Z,1019.28
2023-01-03T04:10:18.579Z,1019.29
2023-01-03T04:11:21.078Z,1019.33
2023-01-03T04:12:18.452Z,1019.27
2023-01-03T04:13:18.636Z,1019.31
2023-01-03T04:14:18.827Z,1019.29
2023-01-03T04:15:19.940Z,1019.39
2023-01-03T04:16:19.262Z,1019.38
2023-01-03T04:17:19.344Z,1019.39
2023-01-03T04:18:19.532Z,1019.33
2023-01-03T04:19:20.587Z,1019.43
2023-01-03T04:20:19.876Z,1019.37
2023-01-03T04:21:21.241Z,1019.38
2023-01-03T04:22:21.211Z,1019.40
2023-01-03T04:23:21.396Z,1019.35
2023-01-03T04:24:21.216Z,1019.41
2023-01-03T04:25:22.574Z,1019.43
2023-01-03T04:26:20.951Z,1019.44
2023-01-03T04:27:23.080Z,1019.39
2023-01-03T04:28:22.082Z,1019.50
2023-01-03T04:29:23.100Z,1019.48
2023-01-03T04:30:21.628Z,1019.51
2023-01-03T04:31:22.655Z,1019.47
2023-01-03T04:32:21.994Z,1019.54
2023-01-03T04:33:23.091Z,1019.50
2023-01-03T04:34:22.369Z,1019.49
2023-01-03T04:35:23.085Z,1019.57
2023-01-03T04:36:23.586Z,1019.55
2023-01-03T04:37:23.656Z,1019.58
2023-01-03T04:38:24.120Z,1019.61
2023-01-03T04:39:23.373Z,1019.55
2023-01-03T04:40:23.530Z,1019.53
2023-01-03T04:41:23.705Z,1019.55
2023-01-03T04:42:23.898Z,1019.57
2023-01-03T04:43:24.079Z,1019.58
2023-01-03T04:44:24.244Z,1019.59
2023-01-03T04:45:24.522Z,1019.61
2023-01-03T04:46:25.651Z,1019.62
2023-01-03T04:47:24.868Z,1019.62
2023-01-03T04:48:25.624Z,1019.62
2023-01-03T04:49:26.578Z,1019.62
2023-01-03T04:50:26.082Z,1019.69
2023-01-03T04:51:25.510Z,1019.72
2023-01-03T04:52:26.618Z,1019.70
2023-01-03T04:53:25.888Z,1019.72
2023-01-03T04:54:27.084Z,1019.77
2023-01-03T04:55:27.120Z,1019.76
2023-01-03T04:56:27.092Z,1019.78
2023-01-03T04:57:26.519Z,1019.78
2023-01-03T04:58:26.698Z,1019.79
2023-01-03T04:59:26.855Z,1019.83
2023-01-03T05:00:27.970Z,1019.79
2023-01-03T05:01:27.386Z,1019.81
2023-01-03T05:02:27.528Z,1019.80
2023-01-03T05:03:28.162Z,1019.81
2023-01-03T05:04:28.892Z,1019.81
2023-01-03T05:05:28.040Z,1019.82
2023-01-03T05:06:28.631Z,1019.79
2023-01-03T05:07:28.423Z,1019.86
2023-01-03T05:08:28.566Z,1019.78
2023-01-03T05:09:28.714Z,1019.87
2023-01-03T05:10:29.622Z,1019.85
2023-01-03T05:11:29.041Z,1019.86
2023-01-03T05:12:29.209Z,1019.89
2023-01-03T05:13:29.394Z,1019.89
2023-01-03T05:14:29.555Z,1019.96
2023-01-03T05:15:29.694Z,1020.01
2023-01-03T05:16:29.969Z,1019.96
2023-01-03T05:17:30.622Z,1019.98
2023-01-03T05:18:30.299Z,1020.00
2023-01-03T05:19:31.127Z,1020.00
2023-01-03T05:20:30.644Z,1020.02
2023-01-03T05:21:30.857Z,1020.02
2023-01-03T05:22:31.045Z,1020.03
2023-01-03T05:23:31.212Z,1019.96
2023-01-03T05:24:31.385Z,1020.01
2023-01-03T05:25:31.569Z,1020.12
2023-01-03T05:26:32.635Z,1020.10
2023-01-03T05:27:31.900Z,1020.03
2023-01-03T05:28:32.625Z,1020.01
2023-01-03T05:29:33.599Z,1020.09
2023-01-03T05:30:33.100Z,1020.11
2023-01-03T05:31:32.686Z,1020.04
2023-01-03T05:32:33.590Z,1020.07
2023-01-03T05:33:32.999Z,1020.03
2023-01-03T05:34:33.203Z,1020.07
2023-01-03T05:35:33.401Z,1020.10
2023-01-03T05:36:34.141Z,1020.10
2023-01-03T05:37:34.629Z,1020.10
2023-01-03T05:38:34.037Z,1020.10
2023-01-03T05:39:34.259Z,1020.12
2023-01-03T05:40:40.888Z,1020.15
2023-01-03T05:41:36.672Z,1020.12
2023-01-03T05:42:34.765Z,1020.13
2023-01-03T05:43:34.920Z,1020.09
2023-01-03T05:44:35.082Z,1020.00
2023-01-03T05:45:36.166Z,1020.08
2023-01-03T05:46:36.188Z,1020.11
2023-01-03T05:47:35.639Z,1020.08
2023-01-03T05:48:35.775Z,1020.19
2023-01-03T05:49:35.889Z,1020.14
2023-01-03T05:50:36.026Z,1020.15
2023-01-03T05:51:36.162Z,1020.16
2023-01-03T05:52:36.347Z,1020.22
2023-01-03T05:53:37.150Z,1020.19
2023-01-03T05:54:36.663Z,1020.21
2023-01-03T05:55:36.822Z,1020.26
2023-01-03T05:56:36.954Z,1020.28
2023-01-03T05:57:37.119Z,1020.30
2023-01-03T05:58:37.293Z,1020.33
2023-01-03T05:59:37.460Z,1020.30
2023-01-03T06:00:37.626Z,1020.34
2023-01-03T06:01:38.638Z,1020.34
2023-01-03T06:02:39.208Z,1020.34
2023-01-03T06:03:38.127Z,1020.41
2023-01-03T06:04:40.685Z,1020.36
2023-01-03T06:05:43.246Z,1020.42
2023-01-03T06:06:41.598Z,1020.40
2023-01-03T06:07:38.814Z,1020.45
2023-01-03T06:08:39.008Z,1020.46
2023-01-03T06:09:39.161Z,1020.42
2023-01-03T06:10:40.140Z,1020.43
2023-01-03T06:11:40.134Z,1020.47
2023-01-03T06:12:39.676Z,1020.49
2023-01-03T06:13:40.640Z,1020.45
2023-01-03T06:14:40.166Z,1020.48
2023-01-03T06:15:41.111Z,1020.49
2023-01-03T06:16:41.160Z,1020.56
2023-01-03T06:17:40.617Z,1020.55
2023-01-03T06:18:41.637Z,1020.60
2023-01-03T06:19:41.163Z,1020.55
2023-01-03T06:20:41.188Z,1020.57
2023-01-03T06:21:41.345Z,1020.62
2023-01-03T06:22:41.523Z,1020.61
2023-01-03T06:23:42.466Z,1020.60
2023-01-03T06:24:42.638Z,1020.69
2023-01-03T06:25:42.053Z,1020.64
2023-01-03T06:26:42.648Z,1020.69
2023-01-03T06:27:42.414Z,1020.59
2023-01-03T06:28:43.095Z,1020.58
2023-01-03T06:29:42.734Z,1020.58
2023-01-03T06:30:42.928Z,1020.65
2023-01-03T06:31:43.181Z,1020.60
2023-01-03T06:32:44.099Z,1020.59
2023-01-03T06:33:43.501Z,1020.58
2023-01-03T06:34:43.700Z,1020.55
2023-01-03T06:35:44.642Z,1020.47
2023-01-03T06:36:44.201Z,1020.51
2023-01-03T06:37:44.253Z,1020.49
2023-01-03T06:38:45.149Z,1020.42
2023-01-03T06:39:44.551Z,1020.41
2023-01-03T06:40:45.875Z,1020.38
2023-01-03T06:41:47.541Z,1020.40
2023-01-03T06:42:46.619Z,1020.34
2023-01-03T06:43:45.252Z,1020.35
2023-01-03T06:44:46.146Z,1020.32
2023-01-03T06:45:47.142Z,1020.31
2023-01-03T06:46:46.689Z,1020.28
2023-01-03T06:47:46.158Z,1020.26
2023-01-03T06:48:46.198Z,1020.21
2023-01-03T06:49:46.373Z,1020.17
2023-01-03T06:50:46.527Z,1020.21
2023-01-03T06:51:48.102Z,1020.06
2023-01-03T06:52:46.861Z,1020.15
2023-01-03T06:53:47.053Z,1020.14
2023-01-03T06:54:48.179Z,1020.15
2023-01-03T06:55:52.871Z,1020.12
2023-01-03T06:56:50.146Z,1020.12
2023-01-03T06:57:47.760Z,1020.11
2023-01-03T06:58:47.956Z,1020.22
2023-01-03T06:59:48.677Z,1020.17
2023-01-03T07:00:48.293Z,1020.20
2023-01-03T07:01:48.623Z,1020.19
2023-01-03T07:02:48.877Z,1020.21
2023-01-03T07:03:48.985Z,1020.14
2023-01-03T07:04:49.129Z,1020.06
2023-01-03T07:05:49.259Z,1020.15
2023-01-03T07:06:49.474Z,1020.08
2023-01-03T07:07:50.646Z,1020.06
2023-01-03T07:08:49.801Z,1020.01
2023-01-03T07:09:50.670Z,1020.02
2023-01-03T07:10:51.978Z,1019.95
2023-01-03T07:11:50.375Z,1019.97
2023-01-03T07:12:51.149Z,1019.97
2023-01-03T07:13:50.789Z,1019.94
2023-01-03T07:14:50.972Z,1020.03
2023-01-03T07:15:51.203Z,1019.89
2023-01-03T07:16:52.113Z,1019.98
2023-01-03T07:17:51.499Z,1019.90
2023-01-03T07:18:55.419Z,1019.91
2023-01-03T07:19:53.650Z,1019.91
2023-01-03T07:20:52.611Z,1019.91
2023-01-03T07:21:52.332Z,1019.88
2023-01-03T07:22:52.392Z,1019.90
2023-01-03T07:23:53.132Z,1019.93
2023-01-03T07:24:52.816Z,1019.89
2023-01-03T07:25:53.028Z,1019.91
2023-01-03T07:26:53.213Z,1019.87
2023-01-03T07:27:53.392Z,1019.85
2023-01-03T07:28:53.603Z,1019.87
2023-01-03T07:29:53.810Z,1019.88
2023-01-03T07:30:54.686Z,1019.86
2023-01-03T07:31:54.214Z,1019.82
2023-01-03T07:32:54.313Z,1019.83
2023-01-03T07:33:54.502Z,1019.85
2023-01-03T07:34:55.179Z,1019.77
2023-01-03T07:35:54.863Z,1019.77
2023-01-03T07:36:55.061Z,1019.80
2023-01-03T07:37:55.231Z,1019.75
2023-01-03T07:38:55.413Z,1019.74
2023-01-03T07:39:56.619Z,1019.84
2023-01-03T07:40:55.797Z,1019.79
2023-01-03T07:41:55.960Z,1019.81
2023-01-03T07:42:56.133Z,1019.87
2023-01-03T07:43:56.332Z,1019.84
2023-01-03T07:44:57.169Z,1019.80
2023-01-03T07:45:56.700Z,1019.77
2023-01-03T07:46:57.700Z,1019.77
2023-01-03T07:47:56.997Z,1019.77
2023-01-03T07:48:58.111Z,1019.81
2023-01-03T07:49:57.389Z,1019.74
2023-01-03T07:50:57.538Z,1019.79
2023-01-03T07:51:58.619Z,1019.78
2023-01-03T07:52:57.884Z,1019.74
2023-01-03T07:53:58.616Z,1019.78
2023-01-03T07:54:58.279Z,1019.73
2023-01-03T07:55:58.430Z,1019.74
2023-01-03T07:56:58.592Z,1019.68
2023-01-03T07:57:59.618Z,1019.70
2023-01-03T07:58:58.905Z,1019.58
2023-01-03T07:59:59.066Z,1019.57
2023-01-03T08:01:00.164Z,1019.65
2023-01-03T08:01:59.548Z,1019.61
2023-01-03T08:02:59.676Z,1019.68
2023-01-03T08:03:59.749Z,1019.68
2023-01-03T08:04:59.948Z,1019.58
2023-01-03T08:06:01.617Z,1019.58
2023-01-03T08:07:00.393Z,1019.56
2023-01-03T08:08:00.549Z,1019.61
2023-01-03T08:09:06.023Z,1019.49
2023-01-03T08:10:02.661Z,1019.56
2023-01-03T08:11:01.619Z,1019.58
2023-01-03T08:12:01.290Z,1019.60
2023-01-03T08:13:02.167Z,1019.56
2023-01-03T08:14:01.693Z,1019.55
2023-01-03T08:15:02.215Z,1019.57
2023-01-03T08:16:03.658Z,1019.49
2023-01-03T08:17:02.100Z,1019.51
2023-01-03T08:18:03.627Z,1019.48
2023-01-03T08:19:03.126Z,1019.42
2023-01-03T08:20:03.620Z,1019.47
2023-01-03T08:21:03.657Z,1019.39
2023-01-03T08:22:03.028Z,1019.36
2023-01-03T08:23:03.175Z,1019.39
2023-01-03T08:24:03.335Z,1019.34
2023-01-03T08:25:03.474Z,1019.34
2023-01-03T08:26:03.679Z,1019.28
2023-01-03T08:27:03.862Z,1019.31
2023-01-03T08:28:04.026Z,1019.23
2023-01-03T08:29:04.676Z,1019.15
2023-01-03T08:30:04.311Z,1019.22
2023-01-03T08:31:05.192Z,1019.18
2023-01-03T08:32:07.136Z,1019.18
2023-01-03T08:33:04.901Z,1019.16
2023-01-03T08:34:11.852Z,1019.15
2023-01-03T08:35:07.303Z,1019.06
2023-01-03T08:36:05.461Z,1019.06
2023-01-03T08:37:05.659Z,1019.08
2023-01-03T08:38:06.627Z,1019.08
2023-01-03T08:39:06.622Z,1019.09
2023-01-03T08:40:07.622Z,1019.08
2023-01-03T08:41:06.400Z,1019.04
2023-01-03T08:42:07.168Z,1019.08
2023-01-03T08:43:06.822Z,1019.12
2023-01-03T08:44:07.024Z,1019.03
2023-01-03T08:45:07.205Z,1019.12
2023-01-03T08:46:07.536Z,1019.07
2023-01-03T08:47:08.526Z,1019.07
2023-01-03T08:48:08.739Z,1019.17
2023-01-03T08:49:07.937Z,1019.16
2023-01-03T08:50:08.631Z,1019.11
2023-01-03T08:51:08.315Z,1019.12
2023-01-03T08:52:09.000Z,1019.00
2023-01-03T08:53:09.625Z,1019.05
2023-01-03T08:54:09.679Z,1019.04
2023-01-03T08:55:09.628Z,1019.00
2023-01-03T08:56:10.125Z,1019.02
2023-01-03T08:57:11.141Z,1018.98
2023-01-03T08:58:09.564Z,1018.90
2023-01-03T08:59:10.667Z,1018.91
2023-01-03T09:00:10.031Z,1018.83
2023-01-03T09:01:10.234Z,1018.80
2023-01-03T09:02:11.384Z,1018.79
2023-01-03T09:03:10.728Z,1018.72
2023-01-03T09:04:11.702Z,1018.65
2023-01-03T09:05:10.921Z,1018.72
2023-01-03T09:06:11.120Z,1018.70
2023-01-03T09:07:11.284Z,1018.75
2023-01-03T09:08:13.029Z,1018.79
2023-01-03T09:09:11.642Z,1018.80
2023-01-03T09:10:11.803Z,1018.67
2023-01-03T09:11:11.987Z,1018.63
2023-01-03T09:12:12.118Z,1018.51
2023-01-03T09:13:12.272Z,1018.45
2023-01-03T09:14:12.425Z,1018.35
2023-01-03T09:15:12.636Z,1018.22
2023-01-03T09:16:12.893Z,1018.08
2023-01-03T09:17:13.638Z,1017.96
2023-01-03T09:18:14.132Z,1017.71
2023-01-03T09:19:13.377Z,1017.68
2023-01-03T09:20:13.544Z,1017.63
2023-01-03T09:21:13.716Z,1017.60
2023-01-03T09:22:13.914Z,1017.72
2023-01-03T09:23:14.103Z,1017.60
2023-01-03T09:24:15.183Z,1017.65
2023-01-03T09:25:15.179Z,1017.71
2023-01-03T09:26:16.635Z,1017.81
2023-01-03T09:27:14.777Z,1017.78
2023-01-03T09:28:16.635Z,1017.72
2023-01-03T09:29:15.123Z,1017.61
2023-01-03T09:30:17.137Z,1017.44
2023-01-03T09:31:15.598Z,1017.16
2023-01-03T09:32:15.838Z,1016.99
2023-01-03T09:33:15.839Z,1016.82
2023-01-03T09:34:16.638Z,1016.73
2023-01-03T09:35:16.160Z,1016.49
2023-01-03T09:36:17.007Z,1016.45
2023-01-03T09:37:16.458Z,1016.23
2023-01-03T09:38:16.655Z,1016.05
2023-01-03T09:39:17.692Z,1015.91
2023-01-03T09:40:17.013Z,1015.72
2023-01-03T09:41:17.198Z,1015.51
2023-01-03T09:42:18.186Z,1015.30
2023-01-03T09:43:24.652Z,1015.21
2023-01-03T09:44:19.803Z,1015.05
2023-01-03T09:45:17.923Z,1014.92
2023-01-03T09:46:19.197Z,1014.69
2023-01-03T09:47:18.308Z,1014.63
2023-01-03T09:48:18.388Z,1014.58
2023-01-03T09:49:19.177Z,1014.48
2023-01-03T09:50:31.926Z,1014.49
2023-01-03T09:51:27.514Z,1014.40
2023-01-03T09:52:21.128Z,1014.26
2023-01-03T09:53:19.261Z,1014.29
2023-01-03T09:54:20.141Z,1014.37
2023-01-03T09:55:21.141Z,1014.33
2023-01-03T09:56:19.916Z,1014.37
2023-01-03T09:57:26.338Z,1014.46
2023-01-03T09:58:24.011Z,1014.39
2023-01-03T09:59:21.190Z,1014.51
2023-01-03T10:00:21.182Z,1014.67
2023-01-03T10:01:23.281Z,1014.66
2023-01-03T10:02:21.109Z,1014.85
2023-01-03T10:03:21.093Z,1014.87
2023-01-03T10:04:21.202Z,1014.95
2023-01-03T10:05:22.145Z,1014.96
2023-01-03T10:06:21.692Z,1014.84
2023-01-03T10:07:21.738Z,1015.00
2023-01-03T10:08:21.879Z,1015.06
2023-01-03T10:09:23.012Z,1015.24
2023-01-03T10:10:23.642Z,1015.30
2023-01-03T10:11:22.366Z,1015.29
2023-01-03T10:12:23.165Z,1015.34
2023-01-03T10:13:23.616Z,1015.38
2023-01-03T10:14:24.652Z,1015.43
2023-01-03T10:15:23.146Z,1015.46
2023-01-03T10:16:23.375Z,1015.57
2023-01-03T10:17:23.556Z,1015.51
2023-01-03T10:18:23.750Z,1015.71
2023-01-03T10:19:24.686Z,1015.83
2023-01-03T10:20:28.043Z,1016.05
2023-01-03T10:21:27.148Z,1016.01
2023-01-03T10:22:26.649Z,1016.14
2023-01-03T10:23:24.671Z,1016.20
2023-01-03T10:24:25.699Z,1016.38
2023-01-03T10:25:24.967Z,1016.50
2023-01-03T10:26:30.788Z,1016.46
2023-01-03T10:27:27.321Z,1016.66
2023-01-03T10:28:26.604Z,1016.64
2023-01-03T10:29:26.655Z,1016.70
2023-01-03T10:30:26.692Z,1016.76
2023-01-03T10:31:26.173Z,1016.84
2023-01-03T10:32:27.152Z,1016.88
2023-01-03T10:33:26.448Z,1016.86
2023-01-03T10:34:27.190Z,1016.98
2023-01-03T10:35:27.700Z,1016.75
2023-01-03T10:36:26.995Z,1016.66
2023-01-03T10:37:27.251Z,1016.52
2023-01-03T10:38:28.154Z,1016.40
2023-01-03T10:39:30.026Z,1016.28
2023-01-03T10:40:27.831Z,1016.23
2023-01-03T10:41:28.063Z,1016.24
2023-01-03T10:42:28.279Z,1016.22
2023-01-03T10:43:29.707Z,1016.23
2023-01-03T10:44:28.668Z,1016.32
2023-01-03T10:45:28.926Z,1016.30
2023-01-03T10:46:30.283Z,1016.42
2023-01-03T10:47:30.171Z,1016.55
2023-01-03T10:48:36.131Z,1016.57
2023-01-03T10:49:31.260Z,1016.72
2023-01-03T10:50:31.196Z,1016.85
2023-01-03T10:51:29.840Z,1016.89
2023-01-03T10:52:30.009Z,1016.95
2023-01-03T10:53:30.694Z,1016.99
2023-01-03T10:54:31.336Z,1016.97
2023-01-03T10:55:30.496Z,1017.02
2023-01-03T10:56:30.709Z,1017.02
2023-01-03T10:57:31.699Z,1017.20
2023-01-03T10:58:36.315Z,1017.19
2023-01-03T10:59:33.311Z,1017.18
2023-01-03T11:00:31.577Z,1017.23
2023-01-03T11:01:32.772Z,1017.14
2023-01-03T11:02:32.032Z,1017.16
2023-01-03T11:03:32.268Z,1017.11
2023-01-03T11:04:32.233Z,1017.11
2023-01-03T11:05:32.436Z,1017.06
2023-01-03T11:06:32.592Z,1017.10
2023-01-03T11:07:34.162Z,1017.03
2023-01-03T11:08:32.884Z,1017.03
2023-01-03T11:09:33.008Z,1016.96
2023-01-03T11:10:33.183Z,1017.02
2023-01-03T11:11:33.354Z,1017.01
2023-01-03T11:12:33.504Z,1017.05
2023-01-03T11:13:33.634Z,1017.10
2023-01-03T11:14:33.784Z,1017.07
2023-01-03T11:15:38.732Z,1017.07
2023-01-03T11:16:37.064Z,1017.10
2023-01-03T11:17:34.317Z,1017.24
2023-01-03T11:18:34.473Z,1017.26
2023-01-03T11:19:34.713Z,1017.18
2023-01-03T11:20:34.764Z,1017.29
2023-01-03T11:21:34.910Z,1017.28
2023-01-03T11:22:37.609Z,1017.27
2023-01-03T11:23:36.227Z,1017.28
2023-01-03T11:24:35.356Z,1017.25
2023-01-03T11:25:35.544Z,1017.21
2023-01-03T11:26:36.732Z,1017.18
2023-01-03T11:27:36.219Z,1017.18
2023-01-03T11:28:36.117Z,1017.32
2023-01-03T11:29:36.268Z,1017.32
2023-01-03T11:30:36.440Z,1017.17
2023-01-03T11:31:37.674Z,1017.17
2023-01-03T11:32:37.673Z,1017.11
2023-01-03T11:33:37.672Z,1017.10
2023-01-03T11:35:11.719Z,1017.24
2023-01-03T11:35:40.233Z,1017.19
2023-01-03T11:36:37.561Z,1017.29
2023-01-03T11:37:38.226Z,1017.24
2023-01-03T11:38:38.711Z,1017.26
2023-01-03T11:39:38.672Z,1017.24
2023-01-03T11:40:38.216Z,1017.31
2023-01-03T11:41:39.673Z,1017.30
2023-01-03T11:42:38.577Z,1017.33
2023-01-03T11:43:38.732Z,1017.27
2023-01-03T11:44:38.850Z,1017.33
2023-01-03T11:45:44.750Z,1017.33
2023-01-03T11:46:41.189Z,1017.29
2023-01-03T11:47:40.174Z,1017.34
2023-01-03T11:48:40.219Z,1017.33
2023-01-03T11:49:39.739Z,1017.28
2023-01-03T11:50:40.536Z,1017.36
2023-01-03T11:51:41.678Z,1017.31
2023-01-03T11:52:41.184Z,1017.40
2023-01-03T11:53:40.327Z,1017.34
2023-01-03T11:54:41.211Z,1017.20
2023-01-03T11:55:40.793Z,1017.29
2023-01-03T11:56:41.001Z,1017.24
2023-01-03T11:57:41.222Z,1017.18
2023-01-03T11:58:42.215Z,1017.17
2023-01-03T11:59:41.621Z,1017.09
2023-01-03T12:00:41.851Z,1017.06
2023-01-03T12:01:42.062Z,1017.10
2023-01-03T12:02:43.230Z,1017.03
2023-01-03T12:03:43.344Z,1016.98
2023-01-03T12:04:42.534Z,1017.00
2023-01-03T12:05:43.690Z,1016.99
2023-01-03T12:06:43.226Z,1017.00
2023-01-03T12:07:48.136Z,1017.07